Strona główna
METAR-TAF:

METAR-TAF

Lotnisko :

Floyd Bennett Memorial Airport

Glens Falls, Nowy Jork, Stany Zjednoczone

Szerokość geograficzna: 43-20-28N, Długość geograficzna: 073-36-38W, wysokość: 100 m

Aktualna obserwacja pogody

Raport powstał 50 minut temu, godzina 09:53 UTC
Cisza
Temperatura -2°C
Wilgotność 93%
Ciśnienie 1021 hPa
Widzialność: 16.1 km
Zachmurzenie całkowite na wysokości 6500 ft

METAR: KGFL 220953Z AUTO 00000KT 10SM OVC065 M02/M03 A3014 RMK AO2 SLP214 T10221028

czas: 06:43 (10:43 UTC)

Prognoza

Raport powstał 5 godziny i 22 minut temu, godzina 05:21 UTC
Prognoza ważna od 22 godzina 06 UTC do 23 godzina 06 UTC
Wiatr kt od północ
Widzialność: 10 km
Przerywane chmury na wysokości 5000 ft
Od 22 godzina 1400 UTC
Wiatr 6 kt od południowo-południowy zachód
Widzialność: 10 km
Przerywane chmury na wysokości 5000 ft
Od 22 godzina 2300 UTC
Wiatr kt od północ
Widzialność: 10 km
Zachmurzenie całkowite na wysokości 5000 ft

TAF: KGFL 220521Z 2206/2306 00000KT P6SM BKN050 FM221400 20006KT P6SM BKN050 FM222300 00000KT P6SM OVC050

Obserwacja i prognoza pogody dla ponad 4000 lotnisk (raport METAR i TAF).

Dostępne stacje oznaczono żółtymi i czerwonymi punktami na mapie.

Najedź kursorem aby zobaczyć nazwę stacji.

Kliknij aby zobaczyć obserwacje i prognozy pogody.

Aby zmienić mapę: kliknij na zielony przycisk z czarnym krzyżykiem, aby powiększyć; na zielony przycisk z myślnikiem, aby pomniejszyć; na zielone strzałki, aby przejść do map sąsiednich.


METAR-TAF: